sensor_id;sensor_type;location;lat;lon;timestamp;pressure;altitude;pressure_sealevel;temperature;humidity
14594;BME280;7383;52.354;9.756;2022-10-29T00:02:22;-12798.66;;;19.85;100.00
14594;BME280;7383;52.354;9.756;2022-10-29T00:04:54;-12798.31;;;19.83;100.00
14594;BME280;7383;52.354;9.756;2022-10-29T00:07:24;-12798.59;;;19.85;100.00
14594;BME280;7383;52.354;9.756;2022-10-29T00:09:52;-12798.41;;;19.84;100.00
14594;BME280;7383;52.354;9.756;2022-10-29T00:12:25;-12798.66;;;19.85;100.00
14594;BME280;7383;52.354;9.756;2022-10-29T00:14:53;-12798.84;;;19.86;100.00
14594;BME280;7383;52.354;9.756;2022-10-29T00:17:20;-12798.84;;;19.86;100.00
14594;BME280;7383;52.354;9.756;2022-10-29T00:20:14;-12798.31;;;19.83;100.00
14594;BME280;7383;52.354;9.756;2022-10-29T00:22:54;-12797.91;;;19.81;100.00
14594;BME280;7383;52.354;9.756;2022-10-29T00:25:26;-12798.06;;;19.82;100.00
14594;BME280;7383;52.354;9.756;2022-10-29T00:28:55;-12797.97;;;19.81;100.00
14594;BME280;7383;52.354;9.756;2022-10-29T00:31:29;-12797.63;;;19.79;100.00
14594;BME280;7383;52.354;9.756;2022-10-29T00:48:12;-12796.34;;;19.72;100.00
14594;BME280;7383;52.354;9.756;2022-10-29T00:53:54;-12795.66;;;19.68;100.00
14594;BME280;7383;52.354;9.756;2022-10-29T00:59:24;-12795.50;;;19.67;100.00
14594;BME280;7383;52.354;9.756;2022-10-29T01:02:17;-12795.56;;;19.67;100.00
14594;BME280;7383;52.354;9.756;2022-10-29T01:08:32;-12795.56;;;19.67;100.00
14594;BME280;7383;52.354;9.756;2022-10-29T01:11:05;-12795.50;;;19.67;100.00
14594;BME280;7383;52.354;9.756;2022-10-29T01:13:47;-12795.75;;;19.68;100.00
14594;BME280;7383;52.354;9.756;2022-10-29T01:16:25;-12795.84;;;19.69;100.00
14594;BME280;7383;52.354;9.756;2022-10-29T01:19:00;-12795.41;;;19.66;100.00
14594;BME280;7383;52.354;9.756;2022-10-29T01:21:37;-12795.06;;;19.64;100.00
14594;BME280;7383;52.354;9.756;2022-10-29T01:24:38;-12795.16;;;19.64;100.00
14594;BME280;7383;52.354;9.756;2022-10-29T01:27:42;-12794.88;;;19.63;100.00
14594;BME280;7383;52.354;9.756;2022-10-29T01:30:19;-12794.53;;;19.61;100.00
14594;BME280;7383;52.354;9.756;2022-10-29T01:32:58;-12794.03;;;19.58;100.00
14594;BME280;7383;52.354;9.756;2022-10-29T01:35:32;-12793.59;;;19.55;100.00
14594;BME280;7383;52.354;9.756;2022-10-29T01:38:10;-12792.91;;;19.51;100.00
14594;BME280;7383;52.354;9.756;2022-10-29T01:40:46;-12792.22;;;19.47;100.00
14594;BME280;7383;52.354;9.756;2022-10-29T01:43:19;-12792.13;;;19.47;100.00
14594;BME280;7383;52.354;9.756;2022-10-29T01:45:51;-12792.13;;;19.47;100.00
14594;BME280;7383;52.354;9.756;2022-10-29T01:48:25;-12791.97;;;19.46;100.00
14594;BME280;7383;52.354;9.756;2022-10-29T01:50:57;-12792.03;;;19.46;100.00
14594;BME280;7383;52.354;9.756;2022-10-29T01:53:27;-12791.97;;;19.46;100.00
14594;BME280;7383;52.354;9.756;2022-10-29T01:55:54;-12791.69;;;19.44;100.00
14594;BME280;7383;52.354;9.756;2022-10-29T01:58:23;-12791.69;;;19.44;100.00
14594;BME280;7383;52.354;9.756;2022-10-29T02:01:07;-12792.03;;;19.46;100.00
14594;BME280;7383;52.354;9.756;2022-10-29T02:03:42;-12791.88;;;19.45;100.00
14594;BME280;7383;52.354;9.756;2022-10-29T02:06:21;-12791.78;;;19.45;100.00
14594;BME280;7383;52.354;9.756;2022-10-29T02:08:54;-12791.44;;;19.43;100.00
14594;BME280;7383;52.354;9.756;2022-10-29T02:11:26;-12791.19;;;19.41;100.00
14594;BME280;7383;52.354;9.756;2022-10-29T02:14:01;-12790.94;;;19.40;100.00
14594;BME280;7383;52.354;9.756;2022-10-29T02:16:29;-12790.94;;;19.40;100.00
14594;BME280;7383;52.354;9.756;2022-10-29T02:18:58;-12790.59;;;19.38;100.00
14594;BME280;7383;52.354;9.756;2022-10-29T02:21:25;-12790.41;;;19.37;100.00
14594;BME280;7383;52.354;9.756;2022-10-29T02:23:52;-12790.22;;;19.36;100.00
14594;BME280;7383;52.354;9.756;2022-10-29T02:26:19;-12790.06;;;19.35;100.00
14594;BME280;7383;52.354;9.756;2022-10-29T02:28:46;-12789.97;;;19.34;100.00
14594;BME280;7383;52.354;9.756;2022-10-29T02:31:12;-12790.06;;;19.35;100.00
14594;BME280;7383;52.354;9.756;2022-10-29T02:33:39;-12789.97;;;19.34;100.00
14594;BME280;7383;52.354;9.756;2022-10-29T02:36:07;-12789.97;;;19.34;100.00
14594;BME280;7383;52.354;9.756;2022-10-29T02:38:34;-12789.53;;;19.32;100.00
14594;BME280;7383;52.354;9.756;2022-10-29T02:41:00;-12789.03;;;19.29;100.00
14594;BME280;7383;52.354;9.756;2022-10-29T02:43:27;-12788.50;;;19.26;100.00
14594;BME280;7383;52.354;9.756;2022-10-29T02:46:09;-12788.25;;;19.24;100.00
14594;BME280;7383;52.354;9.756;2022-10-29T02:48:36;-12787.31;;;19.18;100.00
14594;BME280;7383;52.354;9.756;2022-10-29T02:51:02;-12787.41;;;19.19;100.00
14594;BME280;7383;52.354;9.756;2022-10-29T02:53:30;-12786.88;;;19.16;100.00
14594;BME280;7383;52.354;9.756;2022-10-29T02:55:57;-12785.94;;;19.10;100.00
14594;BME280;7383;52.354;9.756;2022-10-29T02:58:24;-12785.41;;;19.07;100.00
14594;BME280;7383;52.354;9.756;2022-10-29T03:00:51;-12784.81;;;19.04;100.00
14594;BME280;7383;52.354;9.756;2022-10-29T03:03:18;-12784.38;;;19.01;100.00
14594;BME280;7383;52.354;9.756;2022-10-29T03:05:44;-12784.28;;;19.01;100.00
14594;BME280;7383;52.354;9.756;2022-10-29T03:08:11;-12783.44;;;18.96;100.00
14594;BME280;7383;52.354;9.756;2022-10-29T03:10:46;-12783.09;;;18.94;100.00
14594;BME280;7383;52.354;9.756;2022-10-29T03:13:17;-12782.50;;;18.90;100.00
14594;BME280;7383;52.354;9.756;2022-10-29T03:15:47;-12782.06;;;18.88;100.00
14594;BME280;7383;52.354;9.756;2022-10-29T03:18:20;-12781.28;;;18.83;100.00
14594;BME280;7383;52.354;9.756;2022-10-29T03:20:49;-12780.75;;;18.80;100.00
14594;BME280;7383;52.354;9.756;2022-10-29T03:23:16;-12780.25;;;18.77;100.00
14594;BME280;7383;52.354;9.756;2022-10-29T03:25:42;-12779.91;;;18.75;100.00
14594;BME280;7383;52.354;9.756;2022-10-29T03:28:10;-12779.47;;;18.73;100.00
14594;BME280;7383;52.354;9.756;2022-10-29T03:30:37;-12779.03;;;18.70;100.00
14594;BME280;7383;52.354;9.756;2022-10-29T03:33:03;-12778.28;;;18.65;100.00
14594;BME280;7383;52.354;9.756;2022-10-29T03:35:30;-12778.34;;;18.66;100.00
14594;BME280;7383;52.354;9.756;2022-10-29T03:37:59;-12777.91;;;18.63;100.00
14594;BME280;7383;52.354;9.756;2022-10-29T03:40:26;-12778.00;;;18.64;100.00
14594;BME280;7383;52.354;9.756;2022-10-29T03:42:52;-12777.56;;;18.61;100.00
14594;BME280;7383;52.354;9.756;2022-10-29T03:45:20;-12777.50;;;18.61;100.00
14594;BME280;7383;52.354;9.756;2022-10-29T03:47:47;-12777.06;;;18.58;100.00
14594;BME280;7383;52.354;9.756;2022-10-29T03:50:13;-12776.81;;;18.57;100.00
14594;BME280;7383;52.354;9.756;2022-10-29T03:52:40;-12776.72;;;18.56;100.00
14594;BME280;7383;52.354;9.756;2022-10-29T03:55:07;-12777.22;;;18.59;100.00
14594;BME280;7383;52.354;9.756;2022-10-29T03:57:34;-12776.81;;;18.57;100.00
14594;BME280;7383;52.354;9.756;2022-10-29T04:00:01;-12776.72;;;18.56;100.00
14594;BME280;7383;52.354;9.756;2022-10-29T04:02:30;-12776.72;;;18.56;100.00
14594;BME280;7383;52.354;9.756;2022-10-29T04:04:56;-12776.47;;;18.55;100.00
14594;BME280;7383;52.354;9.756;2022-10-29T04:07:23;-12775.78;;;18.51;100.00
14594;BME280;7383;52.354;9.756;2022-10-29T04:09:49;-12775.34;;;18.48;100.00
14594;BME280;7383;52.354;9.756;2022-10-29T04:12:16;-12774.81;;;18.45;100.00
14594;BME280;7383;52.354;9.756;2022-10-29T04:14:43;-12774.22;;;18.42;100.00
14594;BME280;7383;52.354;9.756;2022-10-29T04:17:10;-12774.03;;;18.41;100.00
14594;BME280;7383;52.354;9.756;2022-10-29T04:19:38;-12774.81;;;18.45;100.00
14594;BME280;7383;52.354;9.756;2022-10-29T04:22:06;-12774.31;;;18.42;100.00
14594;BME280;7383;52.354;9.756;2022-10-29T04:24:33;-12773.53;;;18.38;100.00
14594;BME280;7383;52.354;9.756;2022-10-29T04:26:59;-12773.19;;;18.36;100.00
14594;BME280;7383;52.354;9.756;2022-10-29T04:29:26;-12772.84;;;18.34;100.00
14594;BME280;7383;52.354;9.756;2022-10-29T04:31:52;-12772.56;;;18.32;100.00
14594;BME280;7383;52.354;9.756;2022-10-29T04:34:19;-12771.78;;;18.28;100.00
14594;BME280;7383;52.354;9.756;2022-10-29T04:36:47;-12771.63;;;18.27;100.00
14594;BME280;7383;52.354;9.756;2022-10-29T04:39:13;-12770.75;;;18.22;100.00
14594;BME280;7383;52.354;9.756;2022-10-29T04:41:40;-12769.72;;;18.15;100.00
14594;BME280;7383;52.354;9.756;2022-10-29T04:44:07;-12769.03;;;18.11;100.00
14594;BME280;7383;52.354;9.756;2022-10-29T04:46:33;-12768.34;;;18.07;100.00
14594;BME280;7383;52.354;9.756;2022-10-29T04:49:00;-12767.84;;;18.04;100.00
14594;BME280;7383;52.354;9.756;2022-10-29T04:51:26;-12767.66;;;18.03;100.00
14594;BME280;7383;52.354;9.756;2022-10-29T04:53:54;-12766.97;;;17.99;100.00
14594;BME280;7383;52.354;9.756;2022-10-29T04:56:21;-12765.59;;;17.91;100.00
14594;BME280;7383;52.354;9.756;2022-10-29T04:58:49;-12764.28;;;17.84;100.00
14594;BME280;7383;52.354;9.756;2022-10-29T05:01:16;-12763.59;;;17.80;100.00
14594;BME280;7383;52.354;9.756;2022-10-29T05:03:43;-12763.16;;;17.77;100.00
14594;BME280;7383;52.354;9.756;2022-10-29T05:06:10;-12763.53;;;17.79;100.00
14594;BME280;7383;52.354;9.756;2022-10-29T05:08:37;-12763.53;;;17.79;100.00
14594;BME280;7383;52.354;9.756;2022-10-29T05:11:05;-12763.94;;;17.82;100.00
14594;BME280;7383;52.354;9.756;2022-10-29T05:13:32;-12764.03;;;17.82;100.00
14594;BME280;7383;52.354;9.756;2022-10-29T05:15:59;-12764.47;;;17.85;100.00
14594;BME280;7383;52.354;9.756;2022-10-29T05:18:25;-12764.81;;;17.87;100.00
14594;BME280;7383;52.354;9.756;2022-10-29T05:20:52;-12764.97;;;17.88;100.00
14594;BME280;7383;52.354;9.756;2022-10-29T05:23:19;-12765.41;;;17.90;100.00
14594;BME280;7383;52.354;9.756;2022-10-29T05:25:46;-12765.69;;;17.92;100.00
14594;BME280;7383;52.354;9.756;2022-10-29T05:28:16;-12766.28;;;17.95;100.00
14594;BME280;7383;52.354;9.756;2022-10-29T05:30:44;-12766.28;;;17.95;100.00
14594;BME280;7383;52.354;9.756;2022-10-29T05:33:13;-12765.94;;;17.93;100.00
14594;BME280;7383;52.354;9.756;2022-10-29T05:35:40;-12765.94;;;17.93;100.00
14594;BME280;7383;52.354;9.756;2022-10-29T05:38:08;-12765.34;;;17.90;100.00
14594;BME280;7383;52.354;9.756;2022-10-29T05:40:35;-12765.25;;;17.89;100.00
14594;BME280;7383;52.354;9.756;2022-10-29T05:43:01;-12765.34;;;17.90;100.00
14594;BME280;7383;52.354;9.756;2022-10-29T05:45:29;-12765.59;;;17.91;100.00
14594;BME280;7383;52.354;9.756;2022-10-29T05:47:56;-12765.94;;;17.93;100.00
14594;BME280;7383;52.354;9.756;2022-10-29T05:50:23;-12766.53;;;17.97;100.00
14594;BME280;7383;52.354;9.756;2022-10-29T05:52:54;-12766.03;;;17.94;100.00
14594;BME280;7383;52.354;9.756;2022-10-29T05:55:21;-12765.59;;;17.91;100.00
14594;BME280;7383;52.354;9.756;2022-10-29T05:57:48;-12764.47;;;17.85;100.00
14594;BME280;7383;52.354;9.756;2022-10-29T06:00:15;-12763.25;;;17.78;100.00
14594;BME280;7383;52.354;9.756;2022-10-29T06:02:43;-12763.09;;;17.77;100.00
14594;BME280;7383;52.354;9.756;2022-10-29T06:05:10;-12763.53;;;17.79;100.00
14594;BME280;7383;52.354;9.756;2022-10-29T06:07:49;-12763.69;;;17.80;100.00
14594;BME280;7383;52.354;9.756;2022-10-29T06:10:20;-12763.78;;;17.81;100.00
14594;BME280;7383;52.354;9.756;2022-10-29T06:12:47;-12764.22;;;17.83;100.00
14594;BME280;7383;52.354;9.756;2022-10-29T06:15:14;-12764.72;;;17.86;100.00
14594;BME280;7383;52.354;9.756;2022-10-29T06:17:43;-12764.56;;;17.85;100.00
14594;BME280;7383;52.354;9.756;2022-10-29T06:20:10;-12764.56;;;17.85;100.00
14594;BME280;7383;52.354;9.756;2022-10-29T06:22:37;-12764.91;;;17.87;100.00
14594;BME280;7383;52.354;9.756;2022-10-29T06:25:05;-12764.72;;;17.86;100.00
14594;BME280;7383;52.354;9.756;2022-10-29T06:27:32;-12764.72;;;17.86;100.00
14594;BME280;7383;52.354;9.756;2022-10-29T06:29:58;-12764.47;;;17.85;100.00
14594;BME280;7383;52.354;9.756;2022-10-29T06:32:25;-12765.41;;;17.90;100.00
14594;BME280;7383;52.354;9.756;2022-10-29T06:34:53;-12765.94;;;17.93;100.00
14594;BME280;7383;52.354;9.756;2022-10-29T06:37:19;-12766.78;;;17.98;100.00
14594;BME280;7383;52.354;9.756;2022-10-29T06:39:46;-12767.31;;;18.01;100.00
14594;BME280;7383;52.354;9.756;2022-10-29T06:42:12;-12768.25;;;18.07;100.00
14594;BME280;7383;52.354;9.756;2022-10-29T06:44:39;-12768.25;;;18.07;100.00
14594;BME280;7383;52.354;9.756;2022-10-29T06:47:05;-12768.53;;;18.08;100.00
14594;BME280;7383;52.354;9.756;2022-10-29T06:49:32;-12769.03;;;18.11;100.00
14594;BME280;7383;52.354;9.756;2022-10-29T06:52:00;-12768.94;;;18.11;100.00
14594;BME280;7383;52.354;9.756;2022-10-29T06:54:26;-12768.69;;;18.09;100.00
14594;BME280;7383;52.354;9.756;2022-10-29T06:56:53;-12768.94;;;18.11;100.00
14594;BME280;7383;52.354;9.756;2022-10-29T06:59:28;-12768.94;;;18.11;100.00
14594;BME280;7383;52.354;9.756;2022-10-29T07:01:55;-12768.34;;;18.07;100.00
14594;BME280;7383;52.354;9.756;2022-10-29T07:04:21;-12768.53;;;18.08;100.00
14594;BME280;7383;52.354;9.756;2022-10-29T07:06:48;-12768.53;;;18.08;100.00
14594;BME280;7383;52.354;9.756;2022-10-29T07:09:18;-12768.88;;;18.10;100.00
14594;BME280;7383;52.354;9.756;2022-10-29T07:11:50;-12769.13;;;18.12;100.00
14594;BME280;7383;52.354;9.756;2022-10-29T07:14:17;-12768.69;;;18.09;100.00
14594;BME280;7383;52.354;9.756;2022-10-29T07:16:43;-12768.00;;;18.05;100.00
14594;BME280;7383;52.354;9.756;2022-10-29T07:19:10;-12767.22;;;18.01;100.00
14594;BME280;7383;52.354;9.756;2022-10-29T07:21:37;-12767.75;;;18.04;100.00
14594;BME280;7383;52.354;9.756;2022-10-29T07:24:04;-12767.47;;;18.02;100.00
14594;BME280;7383;52.354;9.756;2022-10-29T07:26:32;-12767.06;;;18.00;100.00
14594;BME280;7383;52.354;9.756;2022-10-29T07:28:59;-12767.16;;;18.00;100.00
14594;BME280;7383;52.354;9.756;2022-10-29T07:31:25;-12766.97;;;17.99;100.00
14594;BME280;7383;52.354;9.756;2022-10-29T07:33:52;-12766.88;;;17.99;100.00
14594;BME280;7383;52.354;9.756;2022-10-29T07:36:18;-12766.38;;;17.96;100.00
14594;BME280;7383;52.354;9.756;2022-10-29T07:38:45;-12766.03;;;17.94;100.00
14594;BME280;7383;52.354;9.756;2022-10-29T07:41:12;-12765.41;;;17.90;100.00
14594;BME280;7383;52.354;9.756;2022-10-29T07:43:40;-12765.06;;;17.88;100.00
14594;BME280;7383;52.354;9.756;2022-10-29T07:46:07;-12765.25;;;17.89;100.00
14594;BME280;7383;52.354;9.756;2022-10-29T07:48:33;-12765.84;;;17.93;100.00
14594;BME280;7383;52.354;9.756;2022-10-29T07:51:00;-12766.44;;;17.96;100.00
14594;BME280;7383;52.354;9.756;2022-10-29T07:53:27;-12766.97;;;17.99;100.00
14594;BME280;7383;52.354;9.756;2022-10-29T07:55:55;-12767.16;;;18.00;100.00
14594;BME280;7383;52.354;9.756;2022-10-29T07:58:22;-12767.91;;;18.05;100.00
14594;BME280;7383;52.354;9.756;2022-10-29T08:00:51;-12768.44;;;18.08;100.00
14594;BME280;7383;52.354;9.756;2022-10-29T08:03:18;-12769.28;;;18.13;100.00
14594;BME280;7383;52.354;9.756;2022-10-29T08:05:44;-12769.22;;;18.12;100.00
14594;BME280;7383;52.354;9.756;2022-10-29T08:08:14;-12769.47;;;18.14;100.00
14594;BME280;7383;52.354;9.756;2022-10-29T08:10:41;-12771.03;;;18.23;100.00
14594;BME280;7383;52.354;9.756;2022-10-29T08:13:12;-12772.50;;;18.32;100.00
14594;BME280;7383;52.354;9.756;2022-10-29T08:15:39;-12774.38;;;18.43;100.00
14594;BME280;7383;52.354;9.756;2022-10-29T08:18:10;-12775.59;;;18.50;100.00
14594;BME280;7383;52.354;9.756;2022-10-29T08:20:39;-12776.38;;;18.54;100.00
14594;BME280;7383;52.354;9.756;2022-10-29T08:23:06;-12776.88;;;18.57;100.00
14594;BME280;7383;52.354;9.756;2022-10-29T08:25:32;-12778.00;;;18.64;100.00
14594;BME280;7383;52.354;9.756;2022-10-29T08:28:02;-12778.44;;;18.66;100.00
14594;BME280;7383;52.354;9.756;2022-10-29T08:30:29;-12778.44;;;18.66;100.00
14594;BME280;7383;52.354;9.756;2022-10-29T08:32:56;-12778.97;;;18.70;100.00
14594;BME280;7383;52.354;9.756;2022-10-29T08:35:24;-12779.22;;;18.71;100.00
14594;BME280;7383;52.354;9.756;2022-10-29T08:37:50;-12779.31;;;18.72;100.00
14594;BME280;7383;52.354;9.756;2022-10-29T08:40:26;-12779.66;;;18.74;100.00
14594;BME280;7383;52.354;9.756;2022-10-29T08:43:12;-12780.50;;;18.79;100.00
14594;BME280;7383;52.354;9.756;2022-10-29T08:45:45;-12781.63;;;18.85;100.00
14594;BME280;7383;52.354;9.756;2022-10-29T08:48:26;-12782.75;;;18.92;100.00
14594;BME280;7383;52.354;9.756;2022-10-29T08:50:59;-12783.59;;;18.97;100.00
14594;BME280;7383;52.354;9.756;2022-10-29T08:53:33;-12784.47;;;19.02;100.00
14594;BME280;7383;52.354;9.756;2022-10-29T08:56:04;-12785.41;;;19.07;100.00
14594;BME280;7383;52.354;9.756;2022-10-29T08:58:34;-12785.94;;;19.10;100.00
14594;BME280;7383;52.354;9.756;2022-10-29T09:01:08;-12786.97;;;19.16;100.00
14594;BME280;7383;52.354;9.756;2022-10-29T09:03:36;-12787.91;;;19.22;100.00
14594;BME280;7383;52.354;9.756;2022-10-29T09:06:10;-12788.88;;;19.28;100.00
14594;BME280;7383;52.354;9.756;2022-10-29T09:08:52;-12789.38;;;19.31;100.00
14594;BME280;7383;52.354;9.756;2022-10-29T09:11:39;-12789.47;;;19.31;100.00
14594;BME280;7383;52.354;9.756;2022-10-29T09:14:27;-12790.16;;;19.35;100.00
14594;BME280;7383;52.354;9.756;2022-10-29T09:17:06;-12789.53;;;19.32;100.00
14594;BME280;7383;52.354;9.756;2022-10-29T09:19:44;-12789.97;;;19.34;100.00
14594;BME280;7383;52.354;9.756;2022-10-29T09:22:21;-12790.41;;;19.37;100.00
14594;BME280;7383;52.354;9.756;2022-10-29T09:24:57;-12790.75;;;19.39;100.00
14594;BME280;7383;52.354;9.756;2022-10-29T09:27:38;-12792.03;;;19.46;100.00
14594;BME280;7383;52.354;9.756;2022-10-29T09:30:11;-12793.34;;;19.54;100.00
14594;BME280;7383;52.354;9.756;2022-10-29T09:32:51;-12794.88;;;19.63;100.00
14594;BME280;7383;52.354;9.756;2022-10-29T09:35:21;-12795.50;;;19.67;100.00
14594;BME280;7383;52.354;9.756;2022-10-29T09:38:01;-12795.91;;;19.69;100.00
14594;BME280;7383;52.354;9.756;2022-10-29T09:40:35;-12796.53;;;19.73;100.00
14594;BME280;7383;52.354;9.756;2022-10-29T09:43:06;-12796.69;;;19.74;100.00
14594;BME280;7383;52.354;9.756;2022-10-29T09:45:45;-12796.59;;;19.73;100.00
14594;BME280;7383;52.354;9.756;2022-10-29T09:48:17;-12796.59;;;19.73;100.00
14594;BME280;7383;52.354;9.756;2022-10-29T09:50:55;-12797.03;;;19.76;100.00
14594;BME280;7383;52.354;9.756;2022-10-29T09:53:29;-12797.22;;;19.77;100.00
14594;BME280;7383;52.354;9.756;2022-10-29T09:56:05;-12797.91;;;19.81;100.00
14594;BME280;7383;52.354;9.756;2022-10-29T09:58:36;-12798.41;;;19.84;100.00
14594;BME280;7383;52.354;9.756;2022-10-29T10:01:06;-12798.50;;;19.84;100.00
14594;BME280;7383;52.354;9.756;2022-10-29T10:03:34;-12798.75;;;19.86;100.00
14594;BME280;7383;52.354;9.756;2022-10-29T10:06:07;-12797.38;;;19.78;100.00
14594;BME280;7383;52.354;9.756;2022-10-29T10:09:04;-12797.38;;;19.78;100.00
14594;BME280;7383;52.354;9.756;2022-10-29T10:11:37;-12796.94;;;19.75;100.00
14594;BME280;7383;52.354;9.756;2022-10-29T10:14:12;-12796.94;;;19.75;100.00
14594;BME280;7383;52.354;9.756;2022-10-29T10:16:40;-12797.47;;;19.78;100.00
14594;BME280;7383;52.354;9.756;2022-10-29T10:19:21;-12798.41;;;19.84;100.00
14594;BME280;7383;52.354;9.756;2022-10-29T10:21:55;-12799.19;;;19.88;100.00
14594;BME280;7383;52.354;9.756;2022-10-29T10:24:29;-12798.94;;;19.87;100.00
14594;BME280;7383;52.354;9.756;2022-10-29T10:26:56;-12799.00;;;19.87;100.00
14594;BME280;7383;52.354;9.756;2022-10-29T10:29:24;-12798.84;;;19.86;100.00
14594;BME280;7383;52.354;9.756;2022-10-29T10:32:13;-12798.41;;;19.84;100.00
14594;BME280;7383;52.354;9.756;2022-10-29T10:34:41;-12797.47;;;19.78;100.00
14594;BME280;7383;52.354;9.756;2022-10-29T10:37:13;-12796.78;;;19.74;100.00
14594;BME280;7383;52.354;9.756;2022-10-29T10:39:44;-12796.78;;;19.74;100.00
14594;BME280;7383;52.354;9.756;2022-10-29T10:42:18;-12797.72;;;19.80;100.00
14594;BME280;7383;52.354;9.756;2022-10-29T10:44:48;-12798.59;;;19.85;100.00
14594;BME280;7383;52.354;9.756;2022-10-29T10:47:18;-12800.13;;;19.94;100.00
14594;BME280;7383;52.354;9.756;2022-10-29T10:49:48;-12803.66;;;20.14;100.00
14594;BME280;7383;52.354;9.756;2022-10-29T10:52:17;-12805.63;;;20.26;100.00
14594;BME280;7383;52.354;9.756;2022-10-29T10:54:57;-12808.31;;;20.42;100.00
14594;BME280;7383;52.354;9.756;2022-10-29T10:57:29;-12809.75;;;20.50;100.00
14594;BME280;7383;52.354;9.756;2022-10-29T11:00:02;-12810.97;;;20.57;100.00
14594;BME280;7383;52.354;9.756;2022-10-29T11:02:38;-12813.63;;;20.73;100.00
14594;BME280;7383;52.354;9.756;2022-10-29T11:05:15;-12817.16;;;20.94;100.00
14594;BME280;7383;52.354;9.756;2022-10-29T11:07:45;-12818.16;;;21.00;100.00
14594;BME280;7383;52.354;9.756;2022-10-29T11:10:18;-12818.25;;;21.00;100.00
14594;BME280;7383;52.354;9.756;2022-10-29T11:12:50;-12817.75;;;20.97;100.00
14594;BME280;7383;52.354;9.756;2022-10-29T11:15:26;-12818.59;;;21.02;100.00
14594;BME280;7383;52.354;9.756;2022-10-29T11:17:59;-12821.00;;;21.17;100.00
14594;BME280;7383;52.354;9.756;2022-10-29T11:20:34;-12826.31;;;21.48;100.00
14594;BME280;7383;52.354;9.756;2022-10-29T11:23:24;-12831.28;;;21.77;100.00
14594;BME280;7383;52.354;9.756;2022-10-29T11:25:59;-12833.44;;;21.90;100.00
14594;BME280;7383;52.354;9.756;2022-10-29T11:28:38;-12841.91;;;22.40;100.00
14594;BME280;7383;52.354;9.756;2022-10-29T11:31:59;-12857.81;;;23.34;100.00
14594;BME280;7383;52.354;9.756;2022-10-29T11:34:40;-12869.28;;;24.01;100.00
14594;BME280;7383;52.354;9.756;2022-10-29T11:37:30;-12861.84;;;23.58;100.00
14594;BME280;7383;52.354;9.756;2022-10-29T11:40:35;-12851.16;;;22.94;100.00
14594;BME280;7383;52.354;9.756;2022-10-29T11:43:11;-12845.34;;;22.60;100.00
14594;BME280;7383;52.354;9.756;2022-10-29T11:45:53;-12841.22;;;22.36;100.00
14594;BME280;7383;52.354;9.756;2022-10-29T11:48:39;-12838.50;;;22.20;100.00
14594;BME280;7383;52.354;9.756;2022-10-29T11:51:19;-12837.53;;;22.14;100.00
14594;BME280;7383;52.354;9.756;2022-10-29T11:54:08;-12836.88;;;22.10;100.00
14594;BME280;7383;52.354;9.756;2022-10-29T11:56:48;-12837.03;;;22.11;100.00
14594;BME280;7383;52.354;9.756;2022-10-29T11:59:33;-12841.50;;;22.37;100.00
14594;BME280;7383;52.354;9.756;2022-10-29T12:02:17;-12848.16;;;22.77;100.00
14594;BME280;7383;52.354;9.756;2022-10-29T12:04:55;-12856.03;;;23.23;100.00
14594;BME280;7383;52.354;9.756;2022-10-29T12:07:34;-12865.16;;;23.77;100.00
14594;BME280;7383;52.354;9.756;2022-10-29T12:17:04;-12956.22;;;29.19;100.00
14594;BME280;7383;52.354;9.756;2022-10-29T12:19:59;-12974.63;;;30.29;100.00
14594;BME280;7383;52.354;9.756;2022-10-29T12:22:37;-12961.53;;;29.51;100.00
14594;BME280;7383;52.354;9.756;2022-10-29T12:25:17;-12966.78;;;29.82;100.00
14594;BME280;7383;52.354;9.756;2022-10-29T12:27:56;-12971.06;;;30.08;100.00
14594;BME280;7383;52.354;9.756;2022-10-29T12:30:24;-12976.22;;;30.39;100.00
14594;BME280;7383;52.354;9.756;2022-10-29T12:32:58;-12989.94;;;31.21;100.00
14594;BME280;7383;52.354;9.756;2022-10-29T12:35:37;-12996.25;;;31.59;100.00
14594;BME280;7383;52.354;9.756;2022-10-29T12:38:18;-13023.34;;;33.22;100.00
14594;BME280;7383;52.354;9.756;2022-10-29T12:40:53;-13020.16;;;33.03;100.00
14594;BME280;7383;52.354;9.756;2022-10-29T12:43:28;-13005.00;;;32.11;100.00
14594;BME280;7383;52.354;9.756;2022-10-29T12:46:02;-12989.28;;;31.17;100.00
14594;BME280;7383;52.354;9.756;2022-10-29T12:51:40;-12962.31;;;29.55;100.00
14594;BME280;7383;52.354;9.756;2022-10-29T12:54:35;-12942.28;;;28.35;100.00
14594;BME280;7383;52.354;9.756;2022-10-29T12:57:17;-12930.06;;;27.63;100.00
14594;BME280;7383;52.354;9.756;2022-10-29T12:59:45;-12933.56;;;27.83;100.00
14594;BME280;7383;52.354;9.756;2022-10-29T13:02:25;-12933.22;;;27.81;100.00
14594;BME280;7383;52.354;9.756;2022-10-29T13:05:15;-12917.94;;;26.90;100.00
14594;BME280;7383;52.354;9.756;2022-10-29T13:08:16;-12907.69;;;26.29;100.00
14594;BME280;7383;52.354;9.756;2022-10-29T13:10:52;-12898.50;;;25.75;100.00
14594;BME280;7383;52.354;9.756;2022-10-29T13:16:17;-12888.19;;;25.14;100.00
14594;BME280;7383;52.354;9.756;2022-10-29T13:18:58;-12883.84;;;24.88;100.00
14594;BME280;7383;52.354;9.756;2022-10-29T13:21:54;-12879.16;;;24.60;100.00
14594;BME280;7383;52.354;9.756;2022-10-29T13:24:21;-12875.66;;;24.39;100.00
14594;BME280;7383;52.354;9.756;2022-10-29T13:30:17;-12873.69;;;24.28;100.00
14594;BME280;7383;52.354;9.756;2022-10-29T13:32:46;-12873.03;;;24.24;100.00
14594;BME280;7383;52.354;9.756;2022-10-29T13:35:37;-12872.94;;;24.23;100.00
14594;BME280;7383;52.354;9.756;2022-10-29T13:38:17;-12873.44;;;24.26;100.00
14594;BME280;7383;52.354;9.756;2022-10-29T13:41:12;-12873.38;;;24.26;100.00
14594;BME280;7383;52.354;9.756;2022-10-29T13:43:41;-12873.19;;;24.25;100.00
14594;BME280;7383;52.354;9.756;2022-10-29T13:46:28;-12873.78;;;24.28;100.00
14594;BME280;7383;52.354;9.756;2022-10-29T13:48:59;-12872.94;;;24.23;100.00
14594;BME280;7383;52.354;9.756;2022-10-29T13:51:31;-12872.84;;;24.23;100.00
14594;BME280;7383;52.354;9.756;2022-10-29T13:54:05;-12871.16;;;24.13;100.00
14594;BME280;7383;52.354;9.756;2022-10-29T13:56:38;-12869.09;;;24.00;100.00
14594;BME280;7383;52.354;9.756;2022-10-29T13:59:13;-12868.25;;;23.95;100.00